Time;durP1;ratioP1;P1;durP2;ratioP2;P2;SDS_P1;SDS_P2;PMS_P1;PMS_P2;Temp;Humidity;BMP_temperature;BMP_pressure;BME280_temperature;BME280_humidity;BME280_pressure;Samples;Min_cycle;Max_cycle;Signal;HPM_P1;HPM_P2
2021/05/19 00:00:06;;;;;;;11.00;8.50;;;9.00;99.90;;;;;;5120125;27;21217;-71
2021/05/19 00:02:33;;;;;;;15.43;7.70;;;9.00;99.90;;;;;;5118861;27;20743;-71
2021/05/19 00:05:00;;;;;;;10.60;7.13;;;8.90;99.90;;;;;;5119571;27;20493;-71
2021/05/19 00:07:28;;;;;;;12.70;8.40;;;8.90;99.90;;;;;;5118568;27;20450;-71
2021/05/19 00:09:54;;;;;;;14.20;7.33;;;8.90;99.90;;;;;;5119711;27;20588;-72
2021/05/19 00:12:21;;;;;;;10.17;6.90;;;8.80;99.90;;;;;;5119711;27;20922;-71
2021/05/19 00:14:48;;;;;;;10.97;7.43;;;8.80;99.90;;;;;;5119300;27;20720;-71
2021/05/19 00:17:16;;;;;;;9.47;7.10;;;8.80;99.90;;;;;;5119124;27;20459;-71
2021/05/19 00:19:43;;;;;;;9.57;6.77;;;8.70;99.90;;;;;;5119597;27;20459;-71
2021/05/19 00:22:19;;;;;;;11.73;7.03;;;8.70;99.90;;;;;;5119347;27;20453;-71
2021/05/19 00:24:46;;;;;;;10.27;7.10;;;8.70;99.90;;;;;;5118718;27;20486;-72
2021/05/19 00:27:13;;;;;;;12.53;6.37;;;8.80;99.90;;;;;;5119669;27;20733;-72
2021/05/19 00:29:41;;;;;;;12.50;7.40;;;8.80;99.90;;;;;;5119332;27;20455;-71
2021/05/19 00:32:08;;;;;;;7.93;5.70;;;8.80;99.90;;;;;;5120138;27;20459;-72
2021/05/19 00:34:35;;;;;;;9.10;6.20;;;8.80;99.90;;;;;;5119391;27;20455;-73
2021/05/19 00:37:02;;;;;;;8.73;6.03;;;8.80;99.90;;;;;;5119262;27;20466;-73
2021/05/19 00:39:30;;;;;;;7.10;5.73;;;8.80;99.90;;;;;;5119165;27;20520;-73
2021/05/19 00:41:58;;;;;;;12.00;6.17;;;8.80;99.90;;;;;;5119643;27;20870;-72
2021/05/19 00:44:25;;;;;;;6.57;5.73;;;8.70;99.90;;;;;;5118863;27;20493;-72
2021/05/19 00:46:56;;;;;;;9.00;6.63;;;8.80;99.90;;;;;;5119166;27;20458;-72
2021/05/19 00:49:23;;;;;;;7.53;5.87;;;8.80;99.90;;;;;;5118682;27;20458;-72
2021/05/19 00:51:50;;;;;;;8.03;5.37;;;8.70;99.90;;;;;;5119533;27;20730;-72
2021/05/19 00:54:17;;;;;;;8.97;6.50;;;8.60;99.90;;;;;;5118869;27;20466;-72
2021/05/19 00:56:45;;;;;;;8.20;5.53;;;8.70;99.90;;;;;;5118947;27;20465;-72
2021/05/19 00:59:17;;;;;;;9.10;6.17;;;8.60;99.90;;;;;;5118063;27;20985;-72
2021/05/19 01:01:44;;;;;;;8.50;6.00;;;8.60;99.90;;;;;;5118896;27;20462;-72
2021/05/19 01:04:13;;;;;;;9.67;6.17;;;8.60;99.90;;;;;;5117935;27;20583;-72
2021/05/19 01:06:48;;;;;;;8.00;6.40;;;8.60;99.90;;;;;;5119232;27;20450;-72
2021/05/19 01:12:03;;;;;;;9.10;6.20;;;8.50;99.90;;;;;;5130695;27;20441;-72
2021/05/19 01:14:33;;;;;;;9.27;7.63;;;8.50;99.90;;;;;;5138601;27;20457;-73
2021/05/19 01:17:02;;;;;;;12.30;7.70;;;8.50;99.90;;;;;;5138443;27;20447;-73
2021/05/19 01:19:32;;;;;;;10.73;7.93;;;8.50;99.90;;;;;;5137903;27;20450;-73
2021/05/19 01:22:07;;;;;;;12.20;7.90;;;8.40;99.90;;;;;;5138321;27;20896;-72
2021/05/19 01:24:36;;;;;;;11.73;8.20;;;8.40;99.90;;;;;;5138582;27;20485;-72
2021/05/19 01:27:07;;;;;;;13.57;7.73;;;8.40;99.90;;;;;;5139116;27;20488;-72
2021/05/19 01:29:36;;;;;;;13.23;8.10;;;8.40;99.90;;;;;;5138685;27;20462;-72
2021/05/19 01:32:03;;;;;;;11.87;8.23;;;8.40;99.90;;;;;;5139238;27;20892;-72
2021/05/19 01:34:31;;;;;;;11.90;7.80;;;8.30;99.90;;;;;;5138725;27;20546;-71
2021/05/19 01:36:58;;;;;;;9.57;7.60;;;8.20;99.90;;;;;;5139033;27;20780;-72
2021/05/19 01:39:26;;;;;;;10.37;7.20;;;8.10;99.90;;;;;;5138789;27;20462;-71
2021/05/19 01:41:53;;;;;;;10.80;7.83;;;8.00;99.90;;;;;;5139604;27;20446;-71
2021/05/19 01:44:20;;;;;;;14.20;7.90;;;7.90;99.90;;;;;;5123538;27;20948;-71
2021/05/19 01:46:47;;;;;;;10.83;7.50;;;7.90;99.90;;;;;;5118362;27;20717;-71
2021/05/19 01:49:16;;;;;;;12.60;7.23;;;7.80;99.90;;;;;;5137465;27;20874;-72
2021/05/19 01:51:44;;;;;;;11.20;7.43;;;7.80;99.90;;;;;;5138337;27;20517;-71
2021/05/19 01:54:13;;;;;;;9.30;6.17;;;7.70;99.90;;;;;;5138351;27;20530;-71
2021/05/19 01:56:41;;;;;;;16.33;7.47;;;7.70;99.90;;;;;;5138226;27;20460;-71
2021/05/19 01:59:08;;;;;;;12.80;7.93;;;7.70;99.90;;;;;;5138484;27;20597;-71
2021/05/19 02:01:35;;;;;;;11.80;7.53;;;7.70;99.90;;;;;;5138605;27;20466;-72
2021/05/19 02:04:07;;;;;;;11.40;8.20;;;7.60;99.90;;;;;;5138421;27;20566;-73
2021/05/19 02:06:44;;;;;;;10.80;7.57;;;7.50;99.90;;;;;;5127955;27;20474;-71
2021/05/19 02:09:12;;;;;;;11.83;8.00;;;7.50;99.90;;;;;;5132177;27;20467;-71
2021/05/19 02:11:40;;;;;;;11.93;7.57;;;7.50;99.90;;;;;;5138534;27;20485;-71
2021/05/19 02:14:09;;;;;;;10.40;7.13;;;7.50;99.90;;;;;;5137915;27;20466;-71
2021/05/19 02:16:36;;;;;;;13.40;8.93;;;7.50;99.90;;;;;;5129650;27;20477;-71
2021/05/19 02:19:04;;;;;;;11.23;7.40;;;7.50;99.90;;;;;;5117334;27;20469;-71
2021/05/19 02:21:31;;;;;;;13.87;9.37;;;7.40;99.90;;;;;;5117870;27;20459;-72
2021/05/19 02:23:59;;;;;;;12.93;7.90;;;7.40;99.90;;;;;;5117514;27;20509;-71
2021/05/19 02:26:27;;;;;;;12.10;8.23;;;7.40;99.90;;;;;;5097129;28;20463;-71
2021/05/19 02:28:55;;;;;;;14.60;8.67;;;7.40;99.90;;;;;;5096720;28;20463;-71
2021/05/19 02:31:22;;;;;;;12.27;8.83;;;7.40;99.90;;;;;;5098211;28;20447;-71
2021/05/19 02:33:49;;;;;;;15.87;9.07;;;7.40;99.90;;;;;;5096564;28;20862;-71
2021/05/19 02:36:16;;;;;;;13.83;8.40;;;7.40;99.90;;;;;;5096540;28;20470;-71
2021/05/19 02:38:43;;;;;;;13.60;8.07;;;7.40;99.90;;;;;;5100466;28;20817;-71
2021/05/19 02:41:10;;;;;;;11.40;7.80;;;7.30;99.90;;;;;;5096859;28;20451;-71
2021/05/19 02:43:38;;;;;;;13.57;8.50;;;7.20;99.90;;;;;;5096469;28;20520;-71
2021/05/19 02:46:06;;;;;;;13.03;8.87;;;7.20;99.90;;;;;;5096723;28;20723;-71
2021/05/19 02:48:33;;;;;;;12.70;8.30;;;7.30;99.90;;;;;;5098426;28;20452;-71
2021/05/19 02:51:00;;;;;;;16.43;8.70;;;7.20;99.90;;;;;;5096186;28;20448;-72
2021/05/19 02:53:27;;;;;;;12.20;8.60;;;7.20;99.90;;;;;;5107892;28;20879;-71
2021/05/19 02:55:54;;;;;;;13.90;8.87;;;7.20;99.90;;;;;;5117159;27;20481;-71
2021/05/19 02:58:22;;;;;;;16.03;8.90;;;7.20;99.90;;;;;;5105686;27;20475;-72
2021/05/19 03:00:52;;;;;;;14.87;8.70;;;7.10;99.90;;;;;;5111371;28;20439;-72
2021/05/19 03:03:20;;;;;;;18.53;9.17;;;7.30;99.90;;;;;;5116232;28;20451;-72
2021/05/19 03:05:47;;;;;;;12.27;8.37;;;7.40;99.90;;;;;;5116786;27;20491;-72
2021/05/19 03:08:14;;;;;;;9.87;7.50;;;7.30;99.90;;;;;;5116142;28;20854;-72
2021/05/19 03:10:44;;;;;;;12.50;8.27;;;7.40;99.90;;;;;;5116090;27;20462;-73
2021/05/19 03:13:11;;;;;;;9.47;6.47;;;7.40;99.90;;;;;;5116530;27;20504;-72
2021/05/19 03:15:38;;;;;;;11.20;7.20;;;7.40;99.90;;;;;;5117055;27;20490;-72
2021/05/19 03:18:08;;;;;;;9.97;6.27;;;7.30;99.90;;;;;;5116854;27;20451;-72
2021/05/19 03:20:36;;;;;;;10.73;6.63;;;7.20;99.90;;;;;;5116933;27;20470;-72
2021/05/19 03:23:03;;;;;;;11.90;7.00;;;7.30;99.90;;;;;;5116375;27;20457;-72
2021/05/19 03:25:30;;;;;;;10.60;7.37;;;7.30;99.90;;;;;;5115326;27;20517;-71
2021/05/19 03:27:57;;;;;;;11.20;7.03;;;7.30;99.90;;;;;;5120165;27;20473;-72
2021/05/19 03:30:24;;;;;;;12.17;7.43;;;7.40;99.90;;;;;;5120437;27;21066;-72
2021/05/19 03:32:51;;;;;;;11.57;7.53;;;7.20;99.90;;;;;;5119622;27;20451;-72
2021/05/19 03:35:18;;;;;;;11.60;7.47;;;7.10;99.90;;;;;;5120035;27;20474;-71
2021/05/19 03:37:46;;;;;;;10.97;7.60;;;7.00;99.90;;;;;;5119369;27;20746;-71
2021/05/19 03:40:15;;;;;;;13.97;8.40;;;6.90;99.90;;;;;;5119723;27;20471;-71
2021/05/19 03:42:43;;;;;;;14.43;7.87;;;6.90;99.90;;;;;;5119785;27;20527;-71
2021/05/19 03:45:14;;;;;;;12.70;6.93;;;6.80;99.90;;;;;;5120192;27;20485;-71
2021/05/19 03:47:42;;;;;;;15.43;8.97;;;6.80;99.90;;;;;;5119144;27;20439;-71
2021/05/19 03:50:10;;;;;;;13.77;7.50;;;6.80;99.90;;;;;;5121210;27;20770;-71
2021/05/19 03:52:40;;;;;;;12.20;8.20;;;6.80;99.90;;;;;;5119886;27;20438;-72
2021/05/19 03:55:11;;;;;;;10.70;7.63;;;6.80;99.90;;;;;;5119356;27;20509;-72
2021/05/19 03:57:38;;;;;;;12.60;8.23;;;6.80;99.90;;;;;;5119117;27;20452;-71
2021/05/19 04:00:08;;;;;;;14.47;8.40;;;6.80;99.90;;;;;;5119418;27;20467;-72
2021/05/19 04:02:35;;;;;;;12.37;8.13;;;6.80;99.90;;;;;;5119454;27;20451;-72
2021/05/19 04:05:02;;;;;;;11.73;7.43;;;6.80;99.90;;;;;;5112375;27;20536;-71
2021/05/19 04:07:29;;;;;;;13.40;9.17;;;6.80;99.90;;;;;;5098419;28;20479;-72
2021/05/19 04:09:56;;;;;;;15.47;10.30;;;6.90;99.90;;;;;;5098939;28;20528;-72
2021/05/19 04:12:23;;;;;;;13.97;9.30;;;7.00;99.90;;;;;;5104475;28;20454;-72
2021/05/19 04:14:50;;;;;;;12.83;8.67;;;7.00;99.90;;;;;;5119757;27;20467;-72
2021/05/19 04:17:17;;;;;;;19.10;11.67;;;7.00;99.90;;;;;;5119443;27;21035;-71
2021/05/19 04:19:44;;;;;;;16.30;9.97;;;7.20;99.90;;;;;;5119377;27;20458;-71
2021/05/19 04:22:11;;;;;;;17.00;11.40;;;7.30;99.90;;;;;;5118985;27;20481;-72
2021/05/19 04:24:39;;;;;;;37.67;23.93;;;7.30;99.90;;;;;;5119398;27;20491;-71
2021/05/19 04:27:06;;;;;;;37.93;22.97;;;7.30;99.90;;;;;;5118816;27;20451;-71
2021/05/19 04:29:34;;;;;;;27.30;17.53;;;7.50;99.90;;;;;;5118936;27;20462;-72
2021/05/19 04:32:01;;;;;;;24.30;15.80;;;7.50;99.90;;;;;;5118762;27;20954;-71
2021/05/19 04:34:28;;;;;;;17.57;11.40;;;7.30;99.90;;;;;;5118447;27;20870;-72
2021/05/19 04:36:55;;;;;;;15.50;10.57;;;7.30;99.90;;;;;;5118736;27;20775;-71
2021/05/19 04:39:22;;;;;;;20.70;11.67;;;7.30;99.90;;;;;;5118086;27;20454;-72
2021/05/19 04:41:49;;;;;;;17.27;11.67;;;7.30;99.90;;;;;;5117680;27;20446;-71
2021/05/19 04:44:16;;;;;;;17.50;11.70;;;7.30;99.90;;;;;;5118361;27;20731;-71
2021/05/19 04:46:45;;;;;;;17.77;11.60;;;7.30;99.90;;;;;;5114708;27;20456;-72
2021/05/19 04:49:13;;;;;;;16.53;11.43;;;7.30;99.90;;;;;;5107188;28;20458;-72
2021/05/19 04:51:41;;;;;;;19.80;13.80;;;7.40;99.90;;;;;;5115044;27;20448;-72
2021/05/19 04:54:08;;;;;;;19.17;12.63;;;7.70;99.90;;;;;;5117652;27;20455;-72
2021/05/19 04:56:35;;;;;;;18.53;11.93;;;8.00;99.90;;;;;;5098883;28;20474;-71
2021/05/19 04:59:02;;;;;;;16.23;10.33;;;9.50;99.90;;;;;;5097425;28;20483;-71
2021/05/19 05:01:29;;;;;;;15.73;10.20;;;9.70;99.90;;;;;;5095766;28;20517;-71
2021/05/19 05:03:57;;;;;;;14.53;9.70;;;10.00;99.90;;;;;;5095931;28;20456;-71
2021/05/19 05:06:24;;;;;;;14.77;9.77;;;9.90;99.90;;;;;;5095851;28;20451;-71
2021/05/19 05:08:51;;;;;;;13.27;8.30;;;10.20;99.90;;;;;;5108086;27;20443;-71
2021/05/19 05:11:19;;;;;;;14.23;9.07;;;10.00;99.90;;;;;;5116572;27;20447;-72
2021/05/19 05:13:46;;;;;;;12.50;8.73;;;10.50;99.90;;;;;;5116033;27;20455;-71
2021/05/19 05:16:14;;;;;;;13.87;8.83;;;10.00;99.90;;;;;;5115213;27;20516;-72
2021/05/19 05:18:42;;;;;;;13.97;8.83;;;10.50;99.90;;;;;;5116024;27;20450;-72
2021/05/19 05:21:11;;;;;;;12.03;8.67;;;10.60;99.90;;;;;;5115534;27;20507;-72
2021/05/19 05:23:38;;;;;;;14.30;10.00;;;10.20;99.90;;;;;;5112851;27;20450;-72
2021/05/19 05:26:07;;;;;;;17.27;9.60;;;10.50;99.90;;;;;;5116515;27;20483;-72
2021/05/19 05:28:34;;;;;;;13.20;9.70;;;10.70;99.90;;;;;;5116645;27;20443;-72
2021/05/19 05:31:01;;;;;;;11.70;8.50;;;10.40;99.90;;;;;;5112626;27;20451;-72
2021/05/19 05:33:31;;;;;;;11.50;8.57;;;9.80;99.90;;;;;;5115765;27;20446;-73
2021/05/19 05:35:58;;;;;;;13.60;9.10;;;9.10;99.90;;;;;;5115210;27;21006;-72
2021/05/19 05:38:26;;;;;;;11.70;8.27;;;9.90;99.90;;;;;;5114315;27;20717;-73
2021/05/19 05:40:53;;;;;;;12.53;9.60;;;10.80;99.90;;;;;;5113575;27;20462;-72
2021/05/19 05:43:22;;;;;;;10.90;8.90;;;12.40;99.90;;;;;;5113292;27;20450;-73
2021/05/19 05:45:51;;;;;;;12.37;8.97;;;12.40;99.90;;;;;;5116219;27;20490;-73
2021/05/19 05:48:18;;;;;;;10.13;7.80;;;11.60;99.90;;;;;;5115651;27;20874;-73
2021/05/19 05:50:46;;;;;;;14.33;9.87;;;11.90;99.90;;;;;;5113638;27;20507;-73
2021/05/19 05:53:15;;;;;;;11.60;8.77;;;12.10;99.90;;;;;;5114512;27;20531;-73
2021/05/19 05:55:46;;;;;;;10.30;7.80;;;12.00;99.90;;;;;;5115370;27;20466;-73
2021/05/19 05:58:18;;;;;;;12.13;9.00;;;12.00;99.90;;;;;;5111445;28;20451;-73
2021/05/19 06:00:45;;;;;;;11.13;9.17;;;12.00;99.90;;;;;;5114734;27;20451;-72
2021/05/19 06:03:17;;;;;;;11.20;7.67;;;12.70;99.90;;;;;;5113477;28;20449;-73
2021/05/19 06:05:46;;;;;;;9.93;7.67;;;12.10;99.90;;;;;;5114557;28;20555;-72
2021/05/19 06:08:13;;;;;;;12.97;8.27;;;13.80;99.90;;;;;;5114251;28;20555;-72
2021/05/19 06:10:40;;;;;;;10.50;8.03;;;13.60;99.90;;;;;;5115311;28;20467;-72
2021/05/19 06:13:16;;;;;;;9.47;8.17;;;11.90;99.90;;;;;;5114782;28;20454;-72
2021/05/19 06:15:47;;;;;;;10.70;7.57;;;11.80;99.90;;;;;;5114884;27;20458;-73
2021/05/19 06:18:16;;;;;;;14.17;8.60;;;10.90;99.90;;;;;;5115261;27;20484;-72
2021/05/19 06:20:43;;;;;;;11.80;9.13;;;11.20;99.90;;;;;;5114576;27;20453;-72
2021/05/19 06:23:10;;;;;;;11.03;8.40;;;10.80;99.90;;;;;;5115567;27;20462;-72
2021/05/19 06:25:37;;;;;;;8.90;7.30;;;11.70;99.90;;;;;;5114832;28;20490;-72
2021/05/19 06:28:04;;;;;;;7.90;6.70;;;11.20;99.90;;;;;;5115362;28;20459;-72
2021/05/19 06:30:35;;;;;;;9.20;7.17;;;10.90;99.90;;;;;;5115852;27;20455;-71
2021/05/19 06:33:03;;;;;;;7.40;6.37;;;11.10;99.90;;;;;;5116729;27;20458;-72
2021/05/19 06:35:30;;;;;;;6.50;5.70;;;11.30;99.90;;;;;;5111792;27;20459;-72
2021/05/19 06:37:57;;;;;;;8.60;5.97;;;11.10;99.90;;;;;;5116493;27;20519;-71
2021/05/19 06:40:25;;;;;;;7.93;5.50;;;11.20;99.90;;;;;;5116266;27;20455;-71
2021/05/19 06:42:52;;;;;;;7.00;4.50;;;11.20;99.90;;;;;;5115469;27;21043;-76
2021/05/19 06:45:19;;;;;;;6.60;5.60;;;11.10;99.90;;;;;;5102892;27;20487;-71
2021/05/19 06:47:46;;;;;;;9.53;5.03;;;11.10;99.90;;;;;;5094976;28;20456;-71
2021/05/19 06:50:16;;;;;;;8.13;5.53;;;11.00;99.90;;;;;;5099782;27;20485;-71
2021/05/19 06:52:44;;;;;;;8.90;5.83;;;10.90;99.90;;;;;;5114337;27;20480;-72
2021/05/19 06:55:13;;;;;;;9.67;7.50;;;11.00;99.90;;;;;;5115836;27;20469;-72
2021/05/19 06:57:43;;;;;;;7.27;5.70;;;11.10;99.90;;;;;;5113791;27;20550;-74
2021/05/19 07:00:14;;;;;;;7.13;5.33;;;11.30;99.90;;;;;;5112431;27;20820;-73
2021/05/19 07:02:41;;;;;;;6.27;5.10;;;11.70;99.90;;;;;;5118252;27;20741;-72
2021/05/19 07:05:10;;;;;;;6.87;5.13;;;11.50;99.90;;;;;;5119242;27;20751;-72
2021/05/19 07:07:38;;;;;;;5.77;4.17;;;11.90;99.90;;;;;;5114456;27;20462;-71
2021/05/19 07:10:07;;;;;;;6.73;4.07;;;11.60;99.90;;;;;;5116838;27;20465;-71
2021/05/19 07:12:35;;;;;;;6.30;4.90;;;11.70;99.90;;;;;;5111756;27;20843;-72
2021/05/19 07:15:10;;;;;;;6.83;4.80;;;11.90;99.90;;;;;;5116662;27;20478;-72
2021/05/19 07:17:39;;;;;;;6.60;4.60;;;11.70;99.90;;;;;;5103973;28;20482;-72
2021/05/19 07:20:09;;;;;;;5.93;4.90;;;11.50;99.90;;;;;;5117872;27;20467;-72
2021/05/19 07:22:36;;;;;;;6.10;4.70;;;12.00;99.90;;;;;;5116845;27;20487;-71
2021/05/19 07:25:08;;;;;;;5.67;4.73;;;12.20;99.90;;;;;;5118449;27;20898;-71
2021/05/19 07:27:38;;;;;;;6.60;4.50;;;12.30;99.90;;;;;;5115175;27;20439;-73
2021/05/19 07:30:09;;;;;;;5.80;4.20;;;12.00;99.90;;;;;;5115799;27;20463;-72
2021/05/19 07:32:38;;;;;;;6.90;4.80;;;11.90;99.90;;;;;;5086281;28;20874;-71
2021/05/19 07:35:06;;;;;;;4.83;4.20;;;12.10;99.90;;;;;;5118836;27;21037;-71
2021/05/19 07:37:38;;;;;;;7.50;5.17;;;11.70;99.90;;;;;;5118113;27;20474;-71
2021/05/19 07:40:10;;;;;;;5.53;4.00;;;11.80;99.90;;;;;;5118061;27;20607;-71
2021/05/19 07:42:37;;;;;;;9.97;4.03;;;12.40;99.90;;;;;;5097448;28;20448;-71
2021/05/19 07:45:05;;;;;;;4.37;3.07;;;12.10;99.90;;;;;;5106157;27;20478;-71
2021/05/19 07:47:32;;;;;;;4.73;3.27;;;11.70;99.90;;;;;;5116678;27;20455;-71
2021/05/19 07:50:00;;;;;;;5.67;4.53;;;11.90;99.90;;;;;;5117086;28;21024;-71
2021/05/19 07:52:27;;;;;;;5.20;3.50;;;12.10;99.90;;;;;;5114133;27;20447;-70
2021/05/19 07:54:56;;;;;;;7.40;4.47;;;11.70;99.90;;;;;;5117477;28;20470;-70
2021/05/19 07:57:27;;;;;;;3.90;3.23;;;12.10;99.90;;;;;;5104288;27;20452;-71
2021/05/19 08:00:07;;;;;;;5.30;3.50;;;12.30;99.90;;;;;;5113871;27;20525;-71
2021/05/19 08:02:35;;;;;;;6.80;3.40;;;12.80;99.90;;;;;;5105395;28;20890;-71
2021/05/19 08:05:04;;;;;;;4.27;2.90;;;13.00;99.90;;;;;;5116512;27;20569;-72
2021/05/19 08:07:36;;;;;;;4.90;2.97;;;12.10;99.90;;;;;;5117226;28;20816;-71
2021/05/19 08:10:08;;;;;;;4.50;3.33;;;11.90;99.90;;;;;;5118182;28;20466;-70
2021/05/19 08:12:40;;;;;;;4.93;3.23;;;12.50;99.90;;;;;;5116360;27;20454;-71
2021/05/19 08:15:12;;;;;;;5.97;3.90;;;13.10;99.90;;;;;;5106449;28;21093;-71
2021/05/19 08:17:40;;;;;;;4.10;2.70;;;13.40;99.90;;;;;;5115569;27;20451;-71
2021/05/19 08:20:08;;;;;;;6.20;3.43;;;13.20;99.90;;;;;;5117858;27;20753;-71
2021/05/19 08:22:37;;;;;;;4.80;3.37;;;13.30;99.90;;;;;;5113409;27;20504;-70
2021/05/19 08:25:08;;;;;;;4.20;3.30;;;12.90;99.90;;;;;;5117048;28;20988;-71
2021/05/19 08:27:38;;;;;;;5.73;2.90;;;12.70;99.90;;;;;;5118447;27;20446;-71
2021/05/19 08:30:13;;;;;;;6.30;3.60;;;13.10;99.90;;;;;;5117276;27;20455;-72
2021/05/19 08:32:41;;;;;;;4.50;2.63;;;13.10;99.90;;;;;;5116142;27;20519;-70
2021/05/19 08:35:09;;;;;;;4.27;3.40;;;12.30;99.90;;;;;;5117353;27;20467;-70
2021/05/19 08:37:37;;;;;;;4.47;2.93;;;12.20;99.90;;;;;;5118001;27;20448;-70
2021/05/19 08:40:05;;;;;;;5.40;3.50;;;12.50;99.90;;;;;;5117603;27;20878;-70
2021/05/19 08:42:34;;;;;;;3.83;2.60;;;13.00;99.90;;;;;;5112337;28;20451;-72
2021/05/19 08:45:02;;;;;;;4.00;2.90;;;13.40;99.90;;;;;;5117846;27;20490;-70
2021/05/19 08:47:29;;;;;;;3.40;2.53;;;12.70;99.90;;;;;;5118136;27;21422;-71
2021/05/19 08:49:56;;;;;;;4.13;2.57;;;12.20;99.90;;;;;;5117551;27;20473;-70
2021/05/19 08:52:23;;;;;;;6.53;3.17;;;13.00;99.90;;;;;;5117615;27;20804;-71
2021/05/19 08:54:53;;;;;;;6.97;2.77;;;13.20;99.90;;;;;;5117099;27;20462;-72
2021/05/19 08:57:28;;;;;;;5.30;3.23;;;12.60;99.90;;;;;;5116565;28;20451;-71
2021/05/19 08:59:57;;;;;;;3.90;2.83;;;12.80;99.90;;;;;;5116830;27;20473;-72
2021/05/19 09:02:29;;;;;;;4.57;3.10;;;13.40;99.90;;;;;;5117265;28;20455;-71
2021/05/19 09:04:59;;;;;;;5.10;3.77;;;13.60;99.90;;;;;;5115937;27;21124;-71
2021/05/19 09:07:27;;;;;;;8.23;4.50;;;13.00;99.90;;;;;;5117679;27;20903;-71
2021/05/19 09:09:54;;;;;;;5.27;3.43;;;12.90;99.90;;;;;;5105362;28;20459;-71
2021/05/19 09:12:22;;;;;;;3.90;3.30;;;12.90;99.90;;;;;;5097439;28;20460;-71
2021/05/19 09:15:04;;;;;;;6.53;4.13;;;12.90;99.90;;;;;;5096394;28;20483;-71
2021/05/19 09:17:32;;;;;;;5.23;3.63;;;13.40;99.90;;;;;;5101236;28;20458;-71
2021/05/19 09:20:01;;;;;;;5.47;3.70;;;13.30;99.90;;;;;;5116476;27;20442;-71
2021/05/19 09:22:33;;;;;;;7.50;3.60;;;13.90;99.90;;;;;;5116584;27;20460;-72
2021/05/19 09:25:02;;;;;;;4.20;3.17;;;14.50;99.90;;;;;;5115216;27;20543;-72
2021/05/19 09:27:40;;;;;;;3.80;2.87;;;14.40;99.90;;;;;;5098930;27;20456;-73
2021/05/19 09:30:10;;;;;;;4.33;3.07;;;14.90;99.90;;;;;;5096771;28;20444;-72
2021/05/19 09:32:39;;;;;;;5.03;3.57;;;14.30;99.90;;;;;;5095817;28;20463;-72
2021/05/19 09:35:15;;;;;;;4.87;3.60;;;13.90;99.90;;;;;;5096279;28;20456;-73
2021/05/19 09:37:47;;;;;;;6.57;4.80;;;14.00;99.90;;;;;;5096699;28;20625;-73
2021/05/19 09:40:14;;;;;;;6.20;3.93;;;14.90;99.90;;;;;;5095274;28;20451;-72
2021/05/19 09:42:48;;;;;;;5.80;4.47;;;14.30;99.90;;;;;;5100305;28;20455;-72
2021/05/19 09:45:21;;;;;;;5.17;3.47;;;14.50;99.90;;;;;;5111286;27;20481;-72
2021/05/19 09:47:50;;;;;;;4.50;3.43;;;14.30;99.90;;;;;;5115730;27;20467;-72
2021/05/19 09:50:19;;;;;;;6.10;3.97;;;13.80;99.90;;;;;;5115595;28;20454;-72
2021/05/19 09:53:06;;;;;;;6.47;3.40;;;14.10;99.90;;;;;;5116368;27;20949;-72
2021/05/19 09:55:34;;;;;;;5.77;3.73;;;14.80;99.90;;;;;;5116020;27;20462;-72
2021/05/19 09:58:01;;;;;;;4.07;3.10;;;14.70;99.90;;;;;;5116645;27;20751;-72
2021/05/19 10:00:30;;;;;;;4.10;3.10;;;14.90;99.90;;;;;;5116689;27;20467;-72
2021/05/19 10:03:03;;;;;;;4.83;3.03;;;14.60;99.90;;;;;;5115296;27;20543;-72
2021/05/19 10:05:47;;;;;;;3.80;2.50;;;15.60;99.90;;;;;;5097166;28;20483;-73
2021/05/19 10:08:14;;;;;;;6.90;3.53;;;15.80;99.90;;;;;;5096740;28;20475;-72
2021/05/19 10:10:41;;;;;;;4.50;2.47;;;15.60;99.90;;;;;;5096273;28;20458;-73
2021/05/19 10:13:12;;;;;;;4.13;2.83;;;16.00;99.90;;;;;;5106266;27;20554;-73
2021/05/19 10:15:41;;;;;;;8.00;2.90;;;15.60;99.90;;;;;;5115769;27;20466;-72
2021/05/19 10:18:11;;;;;;;13.17;2.77;;;14.60;99.90;;;;;;5114959;27;20527;-73
2021/05/19 10:20:45;;;;;;;3.90;2.60;;;14.70;99.90;;;;;;5114744;28;20493;-72
2021/05/19 10:23:14;;;;;;;4.03;2.30;;;14.30;99.90;;;;;;5114234;28;20938;-72
2021/05/19 10:25:42;;;;;;;3.50;2.23;;;14.20;99.90;;;;;;5097613;27;20975;-72
2021/05/19 10:28:11;;;;;;;3.50;1.97;;;14.30;99.90;;;;;;5098555;28;20918;-71
2021/05/19 10:30:45;;;;;;;3.37;2.10;;;15.00;99.90;;;;;;5095911;28;20455;-71
2021/05/19 10:33:47;;;;;;;3.50;2.40;;;15.10;99.90;;;;;;5097298;28;20443;-72
2021/05/19 10:36:36;;;;;;;3.87;2.80;;;15.60;99.90;;;;;;5095729;28;20443;-72
2021/05/19 10:39:20;;;;;;;4.50;2.57;;;15.20;99.90;;;;;;5094981;28;20455;-72
2021/05/19 10:41:50;;;;;;;4.47;2.70;;;14.80;99.90;;;;;;5102774;28;20870;-72
2021/05/19 10:44:18;;;;;;;3.50;2.20;;;14.90;99.90;;;;;;5115559;27;20472;-72
2021/05/19 10:46:52;;;;;;;3.33;2.07;;;15.60;99.90;;;;;;5106868;28;20444;-71
2021/05/19 10:49:21;;;;;;;3.30;1.80;;;15.70;99.90;;;;;;5113795;27;20939;-72
2021/05/19 10:52:10;;;;;;;4.43;2.40;;;14.90;99.90;;;;;;5111485;27;20523;-71
2021/05/19 10:57:48;;;;;;;3.40;2.43;;;15.50;99.90;;;;;;5109915;27;20446;-72
2021/05/19 11:00:23;;;;;;;3.90;1.97;;;16.00;99.90;;;;;;5113452;27;20467;-72
2021/05/19 11:03:14;;;;;;;10.10;2.90;;;15.50;99.90;;;;;;5106599;27;20565;-72
2021/05/19 11:06:13;;;;;;;4.97;2.63;;;15.20;99.90;;;;;;5112280;28;20744;-72
2021/05/19 11:08:41;;;;;;;4.13;1.80;;;14.70;99.90;;;;;;5113878;27;20455;-72
2021/05/19 11:11:24;;;;;;;4.03;2.67;;;14.80;99.90;;;;;;5109922;27;20462;-72
2021/05/19 11:14:01;;;;;;;2.80;1.97;;;14.80;99.90;;;;;;5113267;27;20454;-71
2021/05/19 11:16:55;;;;;;;5.80;2.00;;;14.90;99.90;;;;;;5112793;28;20454;-72
2021/05/19 11:19:37;;;;;;;4.13;1.70;;;15.30;99.90;;;;;;5112222;27;20570;-71
2021/05/19 11:22:14;;;;;;;3.30;1.70;;;16.00;99.90;;;;;;5113446;27;20447;-73
2021/05/19 11:25:00;;;;;;;3.43;1.63;;;16.20;99.90;;;;;;5114967;27;20478;-71
2021/05/19 11:27:28;;;;;;;4.00;2.00;;;16.50;99.90;;;;;;5111500;27;20463;-71
2021/05/19 11:29:56;;;;;;;3.90;1.60;;;15.80;99.90;;;;;;5114349;27;20451;-72
2021/05/19 11:32:27;;;;;;;3.10;1.80;;;16.00;99.90;;;;;;5114367;27;20893;-72
2021/05/19 11:35:12;;;;;;;3.23;1.63;;;16.70;99.90;;;;;;5115124;27;20592;-72
2021/05/19 11:37:53;;;;;;;3.03;1.80;;;16.80;99.90;;;;;;5113149;27;20531;-72
2021/05/19 11:40:21;;;;;;;3.57;2.40;;;16.80;99.90;;;;;;5112134;28;20792;-72
2021/05/19 11:42:54;;;;;;;3.10;2.30;;;17.10;99.90;;;;;;5116173;27;20532;-73
2021/05/19 11:45:24;;;;;;;6.10;2.40;;;17.00;99.90;;;;;;5113704;27;20477;-71
2021/05/19 11:47:51;;;;;;;4.23;2.00;;;16.20;99.90;;;;;;5115763;27;20450;-71
2021/05/19 11:50:24;;;;;;;3.43;1.70;;;15.80;99.90;;;;;;5114470;27;20486;-71
2021/05/19 11:52:56;;;;;;;3.20;2.30;;;15.70;99.90;;;;;;5112658;27;21253;-71
2021/05/19 11:55:38;;;;;;;3.60;1.70;;;15.60;99.90;;;;;;5101222;28;20462;-72
2021/05/19 11:58:12;;;;;;;3.20;1.93;;;15.70;99.90;;;;;;5115653;28;20522;-71
2021/05/19 12:00:42;;;;;;;3.97;1.83;;;15.70;99.90;;;;;;5115749;27;20455;-72
2021/05/19 12:03:16;;;;;;;3.33;1.63;;;15.90;99.90;;;;;;5116961;27;20527;-72
2021/05/19 12:05:51;;;;;;;3.47;1.90;;;15.80;99.90;;;;;;5111838;27;20486;-72
2021/05/19 12:08:19;;;;;;;4.93;1.60;;;15.50;99.90;;;;;;5115414;28;20466;-71
2021/05/19 12:11:03;;;;;;;5.40;4.87;;;15.70;99.90;;;;;;5116579;28;20451;-72
2021/05/19 12:13:34;;;;;;;4.27;1.67;;;15.90;99.90;;;;;;5116348;28;20522;-72
2021/05/19 12:16:07;;;;;;;3.40;1.47;;;16.10;99.90;;;;;;5115046;28;20462;-72
2021/05/19 12:18:34;;;;;;;3.20;1.80;;;16.00;99.90;;;;;;5114741;27;20541;-72
2021/05/19 12:21:18;;;;;;;3.47;1.60;;;15.90;99.90;;;;;;5117662;27;20459;-72
2021/05/19 12:23:48;;;;;;;3.30;1.90;;;15.90;99.90;;;;;;5118462;27;20744;-72
2021/05/19 12:26:19;;;;;;;3.83;2.27;;;15.80;99.90;;;;;;5109648;27;20587;-72
2021/05/19 12:28:46;;;;;;;4.80;2.10;;;15.30;99.90;;;;;;5114610;27;20455;-72
2021/05/19 12:31:26;;;;;;;3.53;1.60;;;15.10;99.90;;;;;;5113055;27;20811;-72
2021/05/19 12:33:53;;;;;;;3.13;1.40;;;15.00;99.90;;;;;;5117712;27;20812;-72
2021/05/19 12:36:33;;;;;;;5.23;1.63;;;14.90;99.90;;;;;;5115692;27;20463;-71
2021/05/19 12:39:03;;;;;;;2.23;1.43;;;15.00;99.90;;;;;;5116425;28;20497;-72
2021/05/19 12:41:43;;;;;;;3.70;1.53;;;14.60;99.90;;;;;;5113633;27;20470;-72
2021/05/19 12:44:12;;;;;;;2.37;1.23;;;14.60;99.90;;;;;;5115622;28;20782;-71
2021/05/19 12:46:39;;;;;;;7.20;1.87;;;14.60;99.90;;;;;;5117845;27;20914;-72
2021/05/19 12:49:13;;;;;;;2.87;1.60;;;14.20;99.90;;;;;;5117778;27;20875;-72
2021/05/19 12:51:55;;;;;;;4.40;2.10;;;14.10;99.90;;;;;;5113734;27;20538;-72
2021/05/19 12:54:28;;;;;;;2.63;1.37;;;14.80;99.90;;;;;;5099182;28;20464;-72
2021/05/19 12:57:03;;;;;;;4.50;1.87;;;14.90;99.90;;;;;;5112107;27;20451;-72
2021/05/19 12:59:58;;;;;;;3.73;1.83;;;14.70;99.90;;;;;;5115535;28;20851;-72
2021/05/19 13:02:29;;;;;;;2.50;1.10;;;14.90;99.90;;;;;;5114655;27;20459;-73
2021/05/19 13:05:00;;;;;;;2.40;1.20;;;14.60;99.90;;;;;;5115476;27;20537;-72